createdAt,value
2022-11-13T00:00:26.267Z,22.55
2022-11-13T00:03:12.460Z,22.46
2022-11-13T00:06:01.229Z,22.57
2022-11-13T00:08:48.342Z,22.45
2022-11-13T00:11:34.228Z,22.59
2022-11-13T00:14:20.822Z,21.85
2022-11-13T00:17:07.238Z,22.46
2022-11-13T00:19:53.757Z,22.44
2022-11-13T00:22:40.195Z,22.56
2022-11-13T00:25:27.595Z,22.55
2022-11-13T00:28:14.598Z,22.22
2022-11-13T00:31:02.477Z,22.21
2022-11-13T00:36:56.162Z,22.29
2022-11-13T00:39:42.309Z,22.55
2022-11-13T00:42:29.550Z,22.24
2022-11-13T00:45:16.080Z,22.50
2022-11-13T00:48:02.390Z,22.39
2022-11-13T00:50:48.556Z,22.51
2022-11-13T00:53:35.139Z,22.35
2022-11-13T00:56:22.004Z,22.32
2022-11-13T00:59:08.213Z,22.46
2022-11-13T01:01:56.447Z,22.49
2022-11-13T01:04:43.233Z,22.49
2022-11-13T01:07:29.663Z,22.39
2022-11-13T01:10:15.989Z,22.47
2022-11-13T01:13:02.360Z,22.46
2022-11-13T01:15:48.906Z,22.48
2022-11-13T01:18:35.830Z,22.46
2022-11-13T01:21:25.362Z,22.30
2022-11-13T01:24:11.818Z,22.49
2022-11-13T01:26:58.312Z,22.45
2022-11-13T01:29:44.926Z,22.36
2022-11-13T01:32:31.115Z,22.44
2022-11-13T01:35:17.076Z,22.53
2022-11-13T01:38:03.504Z,22.32
2022-11-13T01:40:49.963Z,22.53
2022-11-13T01:43:38.417Z,22.29
2022-11-13T01:46:46.147Z,22.46
2022-11-13T01:49:36.983Z,22.51
2022-11-13T01:52:27.525Z,22.38
2022-11-13T01:55:19.023Z,22.33
2022-11-13T01:58:07.997Z,22.23
2022-11-13T02:00:54.479Z,22.43
2022-11-13T02:03:40.638Z,22.28
2022-11-13T02:06:31.000Z,22.38
2022-11-13T02:09:20.721Z,22.31
2022-11-13T02:12:12.780Z,22.38
2022-11-13T02:15:01.127Z,22.37
2022-11-13T02:17:56.682Z,22.10
2022-11-13T02:21:01.906Z,22.38
2022-11-13T02:24:15.865Z,22.38
2022-11-13T02:27:08.945Z,22.36
2022-11-13T02:29:55.269Z,22.21
2022-11-13T02:32:46.694Z,22.28
2022-11-13T02:35:35.841Z,22.32
2022-11-13T02:38:22.488Z,22.14
2022-11-13T02:41:08.941Z,22.20
2022-11-13T02:43:54.926Z,22.30
2022-11-13T02:46:41.238Z,22.17
2022-11-13T02:49:27.801Z,22.00
2022-11-13T02:52:14.197Z,22.14
2022-11-13T02:55:00.278Z,22.01
2022-11-13T02:57:46.781Z,22.25
2022-11-13T03:00:33.025Z,22.15
2022-11-13T03:03:47.834Z,22.24
2022-11-13T03:06:25.520Z,22.23
2022-11-13T03:09:11.854Z,21.90
2022-11-13T03:11:57.921Z,21.94
2022-11-13T03:14:44.023Z,22.20
2022-11-13T03:17:35.149Z,21.99
2022-11-13T03:20:21.371Z,22.14
2022-11-13T03:23:08.186Z,22.05
2022-11-13T03:25:54.618Z,22.15
2022-11-13T03:28:40.653Z,22.21
2022-11-13T03:31:26.720Z,22.13
2022-11-13T03:34:13.080Z,22.11
2022-11-13T03:36:59.721Z,22.21
2022-11-13T03:39:45.952Z,22.14
2022-11-13T03:42:32.106Z,22.18
2022-11-13T03:45:18.031Z,22.09
2022-11-13T03:48:04.724Z,21.98
2022-11-13T03:50:54.838Z,22.14
2022-11-13T03:53:41.362Z,22.15
2022-11-13T03:56:27.424Z,22.17
2022-11-13T03:59:13.643Z,22.16
2022-11-13T04:02:02.417Z,21.99
2022-11-13T04:04:48.775Z,22.01
2022-11-13T04:07:35.338Z,22.10
2022-11-13T04:10:22.164Z,22.15
2022-11-13T04:13:08.933Z,22.01
2022-11-13T04:15:55.245Z,21.89
2022-11-13T04:18:41.492Z,21.49
2022-11-13T04:21:27.970Z,22.00
2022-11-13T04:24:14.349Z,21.84
2022-11-13T04:27:00.786Z,22.02
2022-11-13T04:29:47.151Z,21.99
2022-11-13T04:32:33.643Z,22.08
2022-11-13T04:35:19.734Z,22.10
2022-11-13T04:38:06.345Z,22.06
2022-11-13T04:41:12.555Z,21.85
2022-11-13T04:43:59.147Z,21.62
2022-11-13T04:46:45.577Z,21.59
2022-11-13T04:49:32.172Z,21.94
2022-11-13T04:52:18.643Z,21.88
2022-11-13T04:55:05.526Z,21.91
2022-11-13T04:57:55.995Z,21.93
2022-11-13T05:00:42.382Z,21.79
2022-11-13T05:03:28.807Z,21.80
2022-11-13T05:06:15.247Z,21.92
2022-11-13T05:09:03.203Z,21.84
2022-11-13T05:11:49.016Z,21.95
2022-11-13T05:14:36.761Z,21.88
2022-11-13T05:17:23.400Z,21.81
2022-11-13T05:20:10.309Z,21.95
2022-11-13T05:22:56.659Z,21.97
2022-11-13T05:25:43.134Z,21.49
2022-11-13T05:28:30.000Z,21.48
2022-11-13T05:31:16.987Z,21.95
2022-11-13T05:34:06.175Z,21.42
2022-11-13T05:36:52.395Z,21.86
2022-11-13T05:39:38.517Z,21.82
2022-11-13T05:42:25.637Z,21.72
2022-11-13T05:45:11.926Z,21.76
2022-11-13T05:47:58.243Z,21.91
2022-11-13T05:50:44.512Z,21.78
2022-11-13T05:53:31.129Z,21.72
2022-11-13T05:56:26.467Z,21.84
2022-11-13T05:59:12.871Z,21.69
2022-11-13T06:01:59.317Z,21.94
2022-11-13T06:04:45.573Z,21.95
2022-11-13T06:07:31.959Z,21.93
2022-11-13T06:10:18.133Z,21.94
2022-11-13T06:13:04.253Z,21.92
2022-11-13T06:15:50.649Z,21.78
2022-11-13T06:18:38.500Z,21.92
2022-11-13T06:21:26.511Z,21.86
2022-11-13T06:24:13.473Z,21.67
2022-11-13T06:27:00.994Z,21.74
2022-11-13T06:29:47.242Z,21.58
2022-11-13T06:32:33.982Z,21.88
2022-11-13T06:35:20.411Z,21.59
2022-11-13T06:38:14.433Z,21.86
2022-11-13T06:41:01.662Z,21.93
2022-11-13T06:43:49.173Z,21.63
2022-11-13T06:46:35.611Z,21.86
2022-11-13T06:49:21.810Z,21.85
2022-11-13T06:52:07.987Z,21.39
2022-11-13T06:54:54.271Z,21.81
2022-11-13T06:57:40.266Z,21.70
2022-11-13T07:00:26.730Z,21.46
2022-11-13T07:03:17.397Z,21.70
2022-11-13T07:06:06.348Z,21.31
2022-11-13T07:08:53.041Z,21.80
2022-11-13T07:11:39.482Z,21.76
2022-11-13T07:14:26.635Z,21.56
2022-11-13T07:17:12.967Z,21.74
2022-11-13T07:19:59.212Z,21.85
2022-11-13T07:22:45.417Z,21.91
2022-11-13T07:25:32.257Z,21.62
2022-11-13T07:28:18.932Z,21.82
2022-11-13T07:31:07.446Z,21.76
2022-11-13T07:33:53.865Z,21.90
2022-11-13T07:36:40.028Z,21.87
2022-11-13T07:39:26.080Z,21.74
2022-11-13T07:42:12.835Z,21.90
2022-11-13T07:44:59.417Z,21.76
2022-11-13T07:47:45.836Z,21.89
2022-11-13T07:50:34.732Z,21.89
2022-11-13T07:53:22.048Z,21.89
2022-11-13T07:56:08.403Z,21.82
2022-11-13T07:58:54.464Z,21.39
2022-11-13T08:01:40.965Z,21.71
2022-11-13T08:04:27.384Z,21.78
2022-11-13T08:07:14.085Z,21.76
2022-11-13T08:10:00.415Z,21.89
2022-11-13T08:12:47.506Z,21.56
2022-11-13T08:15:34.499Z,21.97
2022-11-13T08:18:22.165Z,22.21
2022-11-13T08:21:14.531Z,22.26
2022-11-13T08:24:01.150Z,22.17
2022-11-13T08:26:47.603Z,22.29
2022-11-13T08:29:34.119Z,22.33
2022-11-13T08:32:22.831Z,22.35
2022-11-13T08:35:09.420Z,22.19
2022-11-13T08:38:01.234Z,22.16
2022-11-13T08:40:48.135Z,22.43
2022-11-13T08:43:34.937Z,22.23
2022-11-13T08:46:21.013Z,22.30
2022-11-13T08:49:07.797Z,22.32
2022-11-13T08:51:54.106Z,22.58
2022-11-13T08:54:42.681Z,22.41
2022-11-13T08:57:31.609Z,22.21
2022-11-13T09:00:18.143Z,22.27
2022-11-13T09:03:04.480Z,22.74
2022-11-13T09:05:50.818Z,22.58
2022-11-13T09:08:38.944Z,22.81
2022-11-13T09:11:28.866Z,22.69
2022-11-13T09:14:15.548Z,22.87
2022-11-13T09:17:01.956Z,22.74
2022-11-13T09:19:48.109Z,22.77
2022-11-13T09:22:35.547Z,22.98
2022-11-13T09:25:23.785Z,23.02
2022-11-13T09:28:11.720Z,22.77
2022-11-13T09:30:58.426Z,22.54
2022-11-13T09:33:44.655Z,22.82
2022-11-13T09:36:31.870Z,22.90
2022-11-13T09:39:18.116Z,22.92
2022-11-13T09:42:10.466Z,22.91
2022-11-13T09:45:03.781Z,22.67
2022-11-13T09:47:52.752Z,23.08
2022-11-13T09:50:40.597Z,23.09
2022-11-13T09:53:33.932Z,23.00
2022-11-13T09:56:38.861Z,23.20
2022-11-13T09:59:31.640Z,23.25
2022-11-13T10:02:27.812Z,23.37
2022-11-13T10:05:23.963Z,23.06
2022-11-13T10:08:38.585Z,23.29
2022-11-13T10:11:42.324Z,23.42
2022-11-13T10:14:34.552Z,23.13
2022-11-13T10:17:44.584Z,23.30
2022-11-13T10:20:43.789Z,23.31
2022-11-13T10:23:35.374Z,23.11
2022-11-13T10:26:24.730Z,22.68
2022-11-13T10:29:18.018Z,22.87
2022-11-13T10:32:20.895Z,22.96
2022-11-13T10:35:08.362Z,22.96
2022-11-13T10:38:07.792Z,22.92
2022-11-13T10:41:07.018Z,22.97
2022-11-13T10:43:59.683Z,22.96
2022-11-13T10:46:46.035Z,23.05
2022-11-13T10:49:32.094Z,22.97
2022-11-13T10:52:23.697Z,23.21
2022-11-13T10:55:40.582Z,23.34
2022-11-13T10:58:27.776Z,23.31
2022-11-13T11:01:16.372Z,23.12
2022-11-13T11:04:27.646Z,23.35
2022-11-13T11:07:23.339Z,23.21
2022-11-13T11:10:21.932Z,23.34
2022-11-13T11:13:20.580Z,23.07
2022-11-13T11:16:09.455Z,23.21
2022-11-13T11:19:00.354Z,23.15
2022-11-13T11:21:50.333Z,23.10
2022-11-13T11:24:56.815Z,23.13
2022-11-13T11:28:28.461Z,23.26
2022-11-13T11:31:30.628Z,23.29
2022-11-13T11:34:46.040Z,22.99
2022-11-13T11:37:42.182Z,23.11
2022-11-13T11:40:36.385Z,22.93
2022-11-13T11:43:42.004Z,23.26
2022-11-13T11:46:29.793Z,23.17
2022-11-13T11:49:16.884Z,23.20
2022-11-13T11:52:32.617Z,23.00
2022-11-13T11:55:24.915Z,23.21
2022-11-13T11:58:36.842Z,23.21
2022-11-13T12:01:42.862Z,23.23
2022-11-13T12:04:51.225Z,23.23
2022-11-13T12:07:55.919Z,23.25
2022-11-13T12:11:11.841Z,23.32
2022-11-13T12:14:13.554Z,23.33
2022-11-13T12:17:16.791Z,23.33
2022-11-13T12:20:28.072Z,23.37
2022-11-13T12:23:44.736Z,23.36
2022-11-13T12:26:40.123Z,23.24
2022-11-13T12:29:48.381Z,23.29
2022-11-13T12:32:50.308Z,23.28
2022-11-13T12:35:38.362Z,23.15
2022-11-13T12:38:33.961Z,23.28
2022-11-13T12:41:38.636Z,23.29
2022-11-13T12:44:30.930Z,23.29
2022-11-13T12:47:17.978Z,23.28
2022-11-13T12:50:22.934Z,23.26
2022-11-13T12:53:13.502Z,23.30
2022-11-13T12:56:04.022Z,23.25
2022-11-13T12:59:29.254Z,23.17
2022-11-13T13:02:29.835Z,23.32
2022-11-13T13:05:53.536Z,23.31
2022-11-13T13:08:42.863Z,23.28
2022-11-13T13:11:49.946Z,23.12
2022-11-13T13:14:54.430Z,23.32
2022-11-13T13:17:41.258Z,23.31
2022-11-13T13:20:41.209Z,23.30
2022-11-13T13:23:33.642Z,23.32
2022-11-13T13:26:28.232Z,23.32
2022-11-13T13:29:23.792Z,23.33
2022-11-13T13:32:43.169Z,23.20
2022-11-13T13:35:48.193Z,23.27
2022-11-13T13:39:02.179Z,23.26
2022-11-13T13:42:07.102Z,23.23
2022-11-13T13:45:11.575Z,23.21
2022-11-13T13:47:58.869Z,23.18
2022-11-13T13:50:47.547Z,23.18
2022-11-13T13:53:36.799Z,23.00
2022-11-13T13:56:24.279Z,23.22
2022-11-13T13:59:15.813Z,23.21
2022-11-13T14:02:03.570Z,23.09
2022-11-13T14:04:55.465Z,23.26
2022-11-13T14:07:46.384Z,23.26
2022-11-13T14:10:32.690Z,22.92
2022-11-13T14:13:28.702Z,22.97
2022-11-13T14:16:15.511Z,22.78
2022-11-13T14:19:05.721Z,23.20
2022-11-13T14:22:05.037Z,23.09
2022-11-13T14:24:55.779Z,23.20
2022-11-13T14:27:41.876Z,23.05
2022-11-13T14:30:30.644Z,23.16
2022-11-13T14:33:22.761Z,23.12
2022-11-13T14:36:09.357Z,23.13
2022-11-13T14:38:56.799Z,22.86
2022-11-13T14:42:41.596Z,23.07
2022-11-13T14:45:30.302Z,23.04
2022-11-13T14:48:29.033Z,23.04
2022-11-13T14:51:30.103Z,22.88
2022-11-13T14:55:00.001Z,22.98
2022-11-13T14:57:49.058Z,23.01
2022-11-13T15:00:39.284Z,22.89
2022-11-13T15:03:26.399Z,22.94
2022-11-13T15:06:17.429Z,23.00
2022-11-13T15:09:06.968Z,22.86
2022-11-13T15:11:53.227Z,22.90
2022-11-13T15:14:41.715Z,22.68
2022-11-13T15:17:28.029Z,22.63
2022-11-13T15:20:24.172Z,22.74
2022-11-13T15:23:15.538Z,22.76
2022-11-13T15:26:01.841Z,22.71
2022-11-13T15:28:49.036Z,22.80
2022-11-13T15:31:37.781Z,22.73
2022-11-13T15:34:24.281Z,22.73
2022-11-13T15:37:16.181Z,22.64
2022-11-13T15:40:02.811Z,22.91
2022-11-13T15:42:49.092Z,22.78
2022-11-13T15:45:38.661Z,22.80
2022-11-13T15:48:27.363Z,22.81
2022-11-13T15:51:46.596Z,22.85
2022-11-13T15:54:36.990Z,22.87
2022-11-13T15:57:28.703Z,22.79
2022-11-13T16:00:17.402Z,22.88
2022-11-13T16:03:11.305Z,22.65
2022-11-13T16:05:59.736Z,22.78
2022-11-13T16:08:50.869Z,22.75
2022-11-13T16:11:37.005Z,22.77
2022-11-13T16:14:25.041Z,22.81
2022-11-13T16:17:20.393Z,22.74
2022-11-13T16:20:10.418Z,22.92
2022-11-13T16:22:56.693Z,22.70
2022-11-13T16:25:43.978Z,22.93
2022-11-13T16:28:31.696Z,22.52
2022-11-13T16:31:24.781Z,22.82
2022-11-13T16:34:10.920Z,22.90
2022-11-13T16:36:57.823Z,22.58
2022-11-13T16:39:45.247Z,22.85
2022-11-13T16:42:32.202Z,22.82
2022-11-13T16:45:19.552Z,22.27
2022-11-13T16:48:12.087Z,22.80
2022-11-13T16:50:58.232Z,22.72
2022-11-13T16:53:44.845Z,22.80
2022-11-13T16:56:31.265Z,22.69
2022-11-13T16:59:18.373Z,22.73
2022-11-13T17:02:13.281Z,22.72
2022-11-13T17:04:59.408Z,22.46
2022-11-13T17:07:46.236Z,22.79
2022-11-13T17:10:33.501Z,22.81
2022-11-13T17:13:19.720Z,22.42
2022-11-13T17:16:05.959Z,22.75
2022-11-13T17:18:55.912Z,22.72
2022-11-13T17:21:44.469Z,22.77
2022-11-13T17:24:31.007Z,22.89
2022-11-13T17:27:18.417Z,22.89
2022-11-13T17:30:05.589Z,22.83
2022-11-13T17:32:51.887Z,22.81
2022-11-13T17:35:38.689Z,22.64
2022-11-13T17:38:26.396Z,22.87
2022-11-13T17:41:13.273Z,22.84
2022-11-13T17:44:01.526Z,22.58
2022-11-13T17:46:48.569Z,22.65
2022-11-13T17:49:34.950Z,22.84
2022-11-13T17:52:21.421Z,22.81
2022-11-13T17:55:10.801Z,22.80
2022-11-13T17:58:00.761Z,22.48
2022-11-13T18:00:47.069Z,22.71
2022-11-13T18:03:33.882Z,22.68
2022-11-13T18:06:22.929Z,22.89
2022-11-13T18:09:10.725Z,22.88
2022-11-13T18:11:56.571Z,22.87
2022-11-13T18:14:43.903Z,22.60
2022-11-13T18:17:30.527Z,22.68
2022-11-13T18:20:17.039Z,22.72
2022-11-13T18:23:03.421Z,22.74
2022-11-13T18:25:50.076Z,22.88
2022-11-13T18:28:36.898Z,22.86
2022-11-13T18:31:23.824Z,22.88
2022-11-13T18:34:13.141Z,22.83
2022-11-13T18:36:59.937Z,22.89
2022-11-13T18:39:46.035Z,22.85
2022-11-13T18:42:32.312Z,22.90
2022-11-13T18:45:18.565Z,22.28
2022-11-13T18:48:05.223Z,22.85
2022-11-13T18:50:57.618Z,22.65
2022-11-13T18:53:45.767Z,22.93
2022-11-13T18:56:35.127Z,22.85
2022-11-13T18:59:21.309Z,22.83
2022-11-13T19:02:09.371Z,22.91
2022-11-13T19:04:56.054Z,22.91
2022-11-13T19:07:44.404Z,22.89
2022-11-13T19:10:33.667Z,22.65
2022-11-13T19:13:19.940Z,22.76
2022-11-13T19:16:14.938Z,22.69
2022-11-13T19:19:05.278Z,22.87
2022-11-13T19:21:52.360Z,22.58
2022-11-13T19:24:39.189Z,22.73
2022-11-13T19:27:25.575Z,22.58
2022-11-13T19:30:14.327Z,22.70
2022-11-13T19:33:00.801Z,22.77
2022-11-13T19:35:47.148Z,22.86
2022-11-13T19:38:33.310Z,22.66
2022-11-13T19:41:19.441Z,22.73
2022-11-13T19:44:06.666Z,22.60
2022-11-13T19:46:53.565Z,22.60
2022-11-13T19:49:39.911Z,22.44
2022-11-13T19:52:25.967Z,22.58
2022-11-13T19:55:12.319Z,22.84
2022-11-13T19:57:58.319Z,22.82
2022-11-13T20:00:45.287Z,22.72
2022-11-13T20:03:31.759Z,22.61
2022-11-13T20:06:22.297Z,22.90
2022-11-13T20:09:08.707Z,22.75
2022-11-13T20:11:55.483Z,22.56
2022-11-13T20:14:41.887Z,22.88
2022-11-13T20:17:28.058Z,22.57
2022-11-13T20:20:14.748Z,22.66
2022-11-13T20:23:01.224Z,22.73
2022-11-13T20:25:56.398Z,22.71
2022-11-13T20:28:43.044Z,22.42
2022-11-13T20:31:31.194Z,22.76
2022-11-13T20:34:18.056Z,22.71
2022-11-13T20:37:04.486Z,22.63
2022-11-13T20:39:50.684Z,22.76
2022-11-13T20:42:37.954Z,22.57
2022-11-13T20:45:24.409Z,22.78
2022-11-13T20:48:10.779Z,22.61
2022-11-13T20:51:04.687Z,22.75
2022-11-13T20:53:51.711Z,22.67
2022-11-13T20:56:37.926Z,22.75
2022-11-13T20:59:24.198Z,22.58
2022-11-13T21:02:10.760Z,22.76
2022-11-13T21:04:59.238Z,22.79
2022-11-13T21:07:45.323Z,22.74
2022-11-13T21:10:33.485Z,22.79
2022-11-13T21:13:19.921Z,22.49
2022-11-13T21:16:09.019Z,22.81
2022-11-13T21:18:59.585Z,22.81
2022-11-13T21:21:45.609Z,22.74
2022-11-13T21:24:33.371Z,22.58
2022-11-13T21:27:19.774Z,22.75
2022-11-13T21:30:06.506Z,22.73
2022-11-13T21:32:52.614Z,22.56
2022-11-13T21:35:38.821Z,22.76
2022-11-13T21:38:25.188Z,22.74
2022-11-13T21:41:23.814Z,22.74
2022-11-13T21:44:11.007Z,22.73
2022-11-13T21:46:57.388Z,22.61
2022-11-13T21:49:43.849Z,22.61
2022-11-13T21:52:31.149Z,22.63
2022-11-13T21:55:17.411Z,22.78
2022-11-13T21:58:03.531Z,22.64
2022-11-13T22:00:50.088Z,22.75
2022-11-13T22:03:36.772Z,22.52
2022-11-13T22:06:36.267Z,22.69
2022-11-13T22:09:25.495Z,22.69
2022-11-13T22:12:13.420Z,22.52
2022-11-13T22:14:59.925Z,22.56
2022-11-13T22:17:48.831Z,22.76
2022-11-13T22:20:35.035Z,22.74
2022-11-13T22:23:21.929Z,22.54
2022-11-13T22:26:14.169Z,22.73
2022-11-13T22:29:01.046Z,22.76
2022-11-13T22:31:48.275Z,22.58
2022-11-13T22:34:34.471Z,22.22
2022-11-13T22:37:21.052Z,22.73
2022-11-13T22:40:07.811Z,22.73
2022-11-13T22:42:56.866Z,22.54
2022-11-13T22:45:43.650Z,22.46
2022-11-13T22:48:30.645Z,22.67
2022-11-13T22:51:34.821Z,22.51
2022-11-13T22:54:22.015Z,22.53
2022-11-13T22:57:09.144Z,22.43
2022-11-13T22:59:55.630Z,22.46
2022-11-13T23:02:46.927Z,22.64
2022-11-13T23:05:36.411Z,22.67
2022-11-13T23:08:23.413Z,22.61
2022-11-13T23:11:15.502Z,22.47
2022-11-13T23:14:04.571Z,22.48
2022-11-13T23:16:50.957Z,22.30
2022-11-13T23:19:37.501Z,22.35
2022-11-13T23:22:24.298Z,22.60
2022-11-13T23:25:11.657Z,22.45
2022-11-13T23:27:58.071Z,22.40
2022-11-13T23:30:44.496Z,22.18
2022-11-13T23:33:31.307Z,22.41
2022-11-13T23:36:18.439Z,22.26
2022-11-13T23:39:04.456Z,22.59
2022-11-13T23:41:50.893Z,22.58
2022-11-13T23:44:37.261Z,22.50
2022-11-13T23:47:23.412Z,22.26
2022-11-13T23:50:10.914Z,22.34
2022-11-13T23:52:58.141Z,22.52
2022-11-13T23:55:45.244Z,22.51
2022-11-13T23:58:32.587Z,22.46
